Nearby METAR Reports

 

KHFD - Hartford/Brainar, Connecticut, USA
Distance from station: NW 13mi, 20km
Updated: Thu, 18-Jan-2018 9:53pm EST
Clear
Clear
 Wind from WNW
Wind: WNW 6 mph , 9 km/h
Temperature: 23°F , -5°C
Wind Chill: 16°F , -9°C
Dew Point: 14°F , -10°C
Humidity: 68%
Barometer: 30.04 inHg , 1017.3 hPa
Clouds: Clear
Visibility: 10 miles , 16 km
2018/01/19 02:53 KHFD 190253Z 29005KT 10SM CLR M05/M10 A3004 RMK AO2 SLP170 T10501100 51018
KSNC - Chester, Connecticut, USA
Distance from station: S 15mi, 23km
Updated: Thu, 18-Jan-2018 9:55pm EST
Clear
Clear
 Wind from WNW
Wind: WNW 9 mph , 15 km/h
Temperature: 23°F , -5°C
Wind Chill: 13°F , -11°C
Dew Point: 14°F , -10°C
Humidity: 68%
Barometer: 30.00 inHg , 1015.9 hPa
Clouds: Clear
Visibility: 10 miles , 16 km
2018/01/19 02:55 KSNC 190255Z AUTO 30008KT 10SM CLR M05/M10 A3000 RMK AO2
 
KMMK - Meriden, Connecticut, USA
Distance from station: WSW 18mi, 30km
Updated: Thu, 18-Jan-2018 9:53pm EST
Clear
Clear
 Wind from W
Wind: W 9 mph , 15 km/h
Temperature: 21°F , -6°C
Wind Chill: 11°F , -12°C
Dew Point: 12°F , -11°C
Humidity: 68%
Barometer: 30.04 inHg , 1017.3 hPa
Clouds: Clear
Visibility: 10 miles , 16 km
2018/01/19 02:53 KMMK 190253Z AUTO 27008KT 10SM CLR M06/M11 A3004 RMK AO2 SLP175 T10611106 51020
KIJD - Willimantic, Connecticut, USA
Distance from station: NE 19mi, 31km
Updated: Thu, 18-Jan-2018 9:52pm EST
Clear
Clear
 Wind from W
Wind: W 5 mph , 7 km/h
Temperature: 21°F , -6°C
Wind Chill: 14°F , -10°C
Dew Point: 12°F , -11°C
Humidity: 68%
Barometer: 30.00 inHg , 1015.9 hPa
Clouds: Clear
Visibility: 10 miles , 16 km
2018/01/19 02:52 KIJD 190252Z AUTO 27004KT 10SM CLR M06/M11 A3000 RMK AO2 SLP162 T10561106 51013
 
KBDL - Windsor Locks, Connecticut, USA
Distance from station: NNW 25mi, 41km
Updated: Thu, 18-Jan-2018 9:51pm EST
Few Clouds
Few Clouds
 Wind from WNW
Wind: WNW 9 mph , 15 km/h
Temperature: 19°F , -7°C
Wind Chill: 8°F , -13°C
Dew Point: 12°F , -11°C
Humidity: 73%
Barometer: 30.02 inHg , 1016.6 hPa
Clouds: Few Clouds
Visibility: 10 miles , 16 km
Cloud details: Few Clouds 2700 ft
Few Clouds 3900 ft
2018/01/19 02:51 KBDL 190251Z 29008KT 10SM FEW027 FEW039 M07/M11 A3002 RMK AO2 SLP167 T10671106 51016
KGON - Groton/New Londo, Connecticut, USA
Distance from station: SE 29mi, 47km
Updated: Thu, 18-Jan-2018 9:56pm EST
Clear
Clear
 Wind from WNW
Wind: WNW 10 mph , 17 km/h
Temperature: 25°F , -4°C
Wind Chill: 15°F , -9°C
Dew Point: 14°F , -10°C
Humidity: 63%
Barometer: 30.01 inHg , 1016.3 hPa
Clouds: Clear
Visibility: 10 miles , 16 km
2018/01/19 02:56 KGON 190256Z 30009KT 10SM CLR M04/M10 A3001 RMK AO2 SLP160 T10391100 51015
 
KHVN - New Haven/Tweed, Connecticut, USA
Distance from station: SW 30mi, 48km
Updated: Thu, 18-Jan-2018 9:53pm EST
Clear
Clear
 Wind from WNW
Wind: WNW 9 mph , 15 km/h
Temperature: 27°F , -3°C
Wind Chill: 18°F , -8°C
Dew Point: 16°F , -9°C
Humidity: 64%
Barometer: 30.05 inHg , 1017.6 hPa
Clouds: Clear
Visibility: 10 miles , 16 km
2018/01/19 02:53 KHVN 190253Z 30008KT 10SM CLR M03/M09 A3005 RMK AO2 SLP175 T10281094 51020
KOXC - Oxford/Waterbury, Connecticut, USA
Distance from station: WSW 34mi, 55km
Updated: Thu, 18-Jan-2018 9:51pm EST
Clear
Clear
 Wind from WNW
Wind: WNW 3 mph , 6 km/h
Temperature: 18°F , -8°C
Dew Point: 12°F , -11°C
Humidity: 79%
Barometer: 30.02 inHg , 1016.6 hPa
Clouds: Clear
Visibility: 10 miles , 16 km
2018/01/19 02:51 KOXC 190251Z AUTO 30003KT 10SM CLR M08/M11 A3002 RMK AO2 SLP191 T10831111 53020 FZRANO
 
KWST - Westerly, Rhode Island, USA
Distance from station: ESE 40mi, 64km
Updated: Thu, 18-Jan-2018 9:53pm EST
Clear
Clear
 Wind from NW
Wind: NW 7 mph , 11 km/h
Temperature: 27°F , -3°C
Wind Chill: 19°F , -7°C
Dew Point: 16°F , -9°C
Humidity: 64%
Barometer: 30.00 inHg , 1015.9 hPa
Clouds: Clear
Visibility: 10 miles , 16 km
2018/01/19 02:53 KWST 190253Z AUTO 31006KT 10SM CLR M03/M09 A3000 RMK AO2 SLP159 T10331089 51015
KBAF - Westfield, Massachusetts, USA
Distance from station: NNW 41mi, 66km
Updated: Thu, 18-Jan-2018 9:53pm EST
Overcast
Overcast
 Wind from WNW
Wind: WNW 13 mph , 20 km/h
Temperature: 21°F , -6°C
Wind Chill: 8°F , -13°C
Dew Point: 14°F , -10°C
Humidity: 74%
Barometer: 30.01 inHg , 1016.3 hPa
Clouds: Overcast
Visibility: 10 miles , 16 km
Cloud details: Overcast 3400 ft
2018/01/19 02:53 KBAF 190253Z 29011KT 10SM OVC034 M06/M10 A3001 RMK AO2 SLP171 T10561100 53017
 
KCEF - Chicopee/Westove, Massachusetts, USA
Distance from station: N 42mi, 67km
Updated: Thu, 18-Jan-2018 9:56pm EST
Overcast
Overcast
 Wind from WNW
Wind: WNW 7 mph , 11 km/h
Temperature: 21°F , -6°C
Wind Chill: 12°F , -11°C
Dew Point: 14°F , -10°C
Humidity: 74%
Barometer: 29.99 inHg , 1015.6 hPa
Clouds: Overcast
Visibility: 10 miles , 16 km
Cloud details: Overcast 3800 ft
2018/01/19 02:56 KCEF 190256Z AUTO 29006KT 10SM OVC038 M06/M10 A2999 RMK AO2 SLP166 T10631105 52016
KBDR - Bridgeport, Connecticut, USA
Distance from station: SW 44mi, 72km
Updated: Thu, 18-Jan-2018 9:52pm EST
Clear
Clear
 Wind from WNW
Wind: WNW 5 mph , 7 km/h
Temperature: 23°F , -5°C
Wind Chill: 17°F , -8°C
Dew Point: 12°F , -11°C
Humidity: 63%
Barometer: 30.07 inHg , 1018.3 hPa
Clouds: Clear
Visibility: 10 miles , 16 km
2018/01/19 02:52 KBDR 190252Z 29004KT 10SM CLR M05/M11 A3007 RMK AO2 SLP182 T10501106 53020
 
KHTO - East Hampton, New York, USA
Distance from station: SSE 46mi, 74km
Updated: Thu, 18-Jan-2018 9:55pm EST
Clear
Clear
 Wind from NW
Wind: NW 6 mph , 9 km/h
Temperature: 25°F , -4°C
Wind Chill: 18°F , -8°C
Dew Point: 16°F , -9°C
Humidity: 69%
Barometer: 30.02 inHg , 1016.6 hPa
Clouds: Clear
Visibility: 10 miles , 16 km
2018/01/19 02:55 KHTO 190255Z AUTO 31005KT 10SM CLR M04/M09 A3002 RMK AO2 T10371093
KMTP - Montauk, New York, USA
Distance from station: SE 47mi, 76km
Updated: Thu, 18-Jan-2018 9:54pm EST

 Wind from NW
Wind: NW 13 mph , 20 km/h, Gust: 21 mph , 33 km/h
Temperature: 30°F , -1°C
Wind Chill: 20°F , -7°C
Dew Point: 18°F , -8°C
Humidity: 59%
Barometer: 30.01 inHg , 1016.3 hPa
2018/01/19 02:54 KMTP 190254Z AUTO 31011G18KT M01/M08 A3001 RMK AO1 SLP161 T10111083 53014